createdAt,value
2019-05-10T00:03:51.282Z,64.31
2019-05-10T00:08:51.514Z,64.25
2019-05-10T00:13:51.430Z,64.39
2019-05-10T00:18:51.550Z,64.23
2019-05-10T00:23:51.574Z,64.66
2019-05-10T00:28:51.815Z,64.37
2019-05-10T00:33:52.619Z,64.8
2019-05-10T00:38:52.650Z,64.75
2019-05-10T00:44:04.984Z,64.53
2019-05-10T00:49:05.043Z,65.1
2019-05-10T00:54:05.075Z,65.05
2019-05-10T00:59:05.779Z,65.1
2019-05-10T01:04:06.440Z,65.0
2019-05-10T01:09:06.475Z,65.21
2019-05-10T01:14:06.517Z,65.24
2019-05-10T01:19:07.016Z,65.26
2019-05-10T01:24:06.811Z,64.83
2019-05-10T01:29:07.063Z,64.36
2019-05-10T01:34:07.090Z,64.88
2019-05-10T01:39:13.383Z,65.07
2019-05-10T01:44:13.498Z,64.46
2019-05-10T01:49:13.530Z,64.59
2019-05-10T01:54:13.647Z,64.34
2019-05-10T01:59:13.806Z,64.59
2019-05-10T02:04:18.063Z,65.13
2019-05-10T02:09:13.856Z,65.14
2019-05-10T02:14:14.495Z,65.31
2019-05-10T02:19:14.847Z,65.28
2019-05-10T02:24:14.627Z,65.84
2019-05-10T02:29:15.937Z,65.6
2019-05-10T02:34:22.240Z,64.88
2019-05-10T02:39:22.392Z,64.77
2019-05-10T02:44:23.058Z,65.41
2019-05-10T02:49:23.171Z,67.45
2019-05-10T02:54:23.349Z,65.96
2019-05-10T02:59:23.413Z,65.8
2019-05-10T03:04:23.527Z,65.61
2019-05-10T03:09:23.555Z,65.12
2019-05-10T03:14:23.591Z,64.71
2019-05-10T03:19:23.759Z,64.42
2019-05-10T03:24:28.189Z,64.1
2019-05-10T03:29:30.118Z,64.93
2019-05-10T03:34:31.304Z,65.4
2019-05-10T03:39:31.439Z,65.2
2019-05-10T03:44:31.431Z,65.41
2019-05-10T03:49:31.547Z,65.37
2019-05-10T03:54:31.652Z,65.58
2019-05-10T03:59:31.628Z,65.22
2019-05-10T04:04:31.748Z,65.68
2019-05-10T04:09:31.792Z,65.56
2019-05-10T04:14:31.855Z,65.43
2019-05-10T04:19:32.036Z,65.05
2019-05-10T04:24:38.319Z,65.43
2019-05-10T04:29:38.440Z,65.41
2019-05-10T04:34:38.719Z,65.32
2019-05-10T04:39:38.599Z,65.08
2019-05-10T04:44:38.591Z,65.7
2019-05-10T04:49:39.115Z,66.3
2019-05-10T04:54:39.899Z,66.13
2019-05-10T04:59:39.196Z,65.62
2019-05-10T05:04:39.371Z,65.61
2019-05-10T05:09:39.355Z,65.48
2019-05-10T05:14:39.471Z,66.29
2019-05-10T05:19:45.772Z,66.11
2019-05-10T05:24:45.847Z,65.81
2019-05-10T05:29:45.882Z,65.39
2019-05-10T05:34:45.921Z,65.98
2019-05-10T05:39:46.032Z,66.0
2019-05-10T05:44:46.141Z,65.96
2019-05-10T05:49:46.152Z,65.15
2019-05-10T05:54:46.340Z,65.47
2019-05-10T05:59:49.456Z,64.43
2019-05-10T06:04:47.916Z,63.94
2019-05-10T06:09:46.672Z,63.39
2019-05-10T06:14:52.984Z,62.66
2019-05-10T06:19:53.008Z,62.68
2019-05-10T06:24:54.271Z,62.73
2019-05-10T06:29:53.196Z,62.35
2019-05-10T06:34:53.312Z,61.5
2019-05-10T06:39:53.348Z,61.73
2019-05-10T06:44:54.629Z,61.89
2019-05-10T06:49:53.685Z,60.08
2019-05-10T06:54:53.871Z,59.63
2019-05-10T07:00:05.933Z,59.3
2019-05-10T07:04:53.919Z,57.47
2019-05-10T07:10:14.974Z,58.05
2019-05-10T07:15:05.425Z,58.78
2019-05-10T07:20:00.331Z,58.78
2019-05-10T07:25:07.388Z,59.72
2019-05-10T07:30:00.463Z,59.3
2019-05-10T07:35:01.374Z,58.53
2019-05-10T07:40:03.836Z,59.11
2019-05-10T07:45:00.658Z,58.04
2019-05-10T07:50:09.535Z,56.3
2019-05-10T07:55:00.799Z,57.81
2019-05-10T08:00:06.078Z,57.72
2019-05-10T08:05:15.371Z,57.14
2019-05-10T08:10:09.311Z,57.81
2019-05-10T08:15:09.279Z,57.35
2019-05-10T08:20:27.953Z,55.28
2019-05-10T08:25:09.407Z,54.56
2019-05-10T08:30:28.859Z,54.96
2019-05-10T08:35:18.660Z,57.91
2019-05-10T08:40:09.638Z,53.47
2019-05-10T08:45:09.672Z,53.53
2019-05-10T08:50:30.617Z,52.3
2019-05-10T08:55:12.622Z,51.48
2019-05-10T09:00:16.147Z,48.66
2019-05-10T09:05:29.263Z,52.08
2019-05-10T09:10:16.301Z,47.37
2019-05-10T09:15:16.343Z,46.16
2019-05-10T09:20:25.862Z,46.06
2019-05-10T09:25:28.724Z,45.35
2019-05-10T09:30:18.853Z,47.05
2019-05-10T09:35:16.600Z,46.46
2019-05-10T09:40:16.629Z,46.72
2019-05-10T09:45:16.773Z,43.09
2019-05-10T09:50:16.791Z,43.98
2019-05-10T09:55:23.213Z,43.35
2019-05-10T10:00:23.396Z,41.85
2019-05-10T10:05:24.464Z,42.98
2019-05-10T10:10:32.667Z,40.61
2019-05-10T10:15:34.153Z,43.12
2019-05-10T10:20:24.809Z,40.21
2019-05-10T10:25:31.702Z,40.36
2019-05-10T10:30:30.957Z,41.97
2019-05-10T10:35:29.842Z,46.48
2019-05-10T10:40:27.696Z,46.37
2019-05-10T10:45:27.949Z,47.69
2019-05-10T10:50:32.252Z,46.81
2019-05-10T10:55:39.980Z,46.63
2019-05-10T11:00:33.047Z,45.75
2019-05-10T11:05:33.179Z,45.16
2019-05-10T11:10:33.218Z,44.56
2019-05-10T11:15:36.648Z,44.88
2019-05-10T11:20:33.435Z,44.21
2019-05-10T11:25:33.551Z,43.78
2019-05-10T11:30:33.567Z,42.36
2019-05-10T11:35:35.147Z,42.21
2019-05-10T11:40:35.598Z,40.72
2019-05-10T11:45:44.336Z,39.96
2019-05-10T11:50:41.621Z,43.35
2019-05-10T11:55:43.950Z,46.18
2019-05-10T12:00:41.817Z,45.79
2019-05-10T12:05:43.016Z,46.81
2019-05-10T12:11:07.228Z,49.27
2019-05-10T12:15:43.639Z,47.79
2019-05-10T12:21:07.916Z,45.64
2019-05-10T12:27:18.330Z,44.83
2019-05-10T12:30:46.334Z,43.22
2019-05-10T12:35:47.880Z,44.71
2019-05-10T12:40:55.746Z,46.14
2019-05-10T12:45:55.778Z,46.61
2019-05-10T12:51:05.528Z,43.8
2019-05-10T12:55:58.461Z,43.85
2019-05-10T13:00:59.431Z,45.45
2019-05-10T13:05:58.857Z,44.46
2019-05-10T13:10:58.889Z,43.16
2019-05-10T13:16:09.471Z,44.01
2019-05-10T13:20:59.145Z,42.43
2019-05-10T13:25:59.566Z,41.64
2019-05-10T13:36:06.646Z,43.04
2019-05-10T13:41:06.685Z,44.08
2019-05-10T13:46:06.870Z,49.89
2019-05-10T13:51:08.758Z,51.05
2019-05-10T13:56:08.782Z,50.58
2019-05-10T14:01:14.750Z,51.1
2019-05-10T14:06:09.032Z,49.66
2019-05-10T14:11:09.147Z,49.82
2019-05-10T14:16:19.943Z,45.93
2019-05-10T14:21:09.515Z,48.8
2019-05-10T14:26:18.248Z,46.02
2019-05-10T14:31:17.743Z,45.15
2019-05-10T14:36:21.004Z,45.87
2019-05-10T14:41:18.600Z,45.89
2019-05-10T14:46:18.781Z,46.94
2019-05-10T14:51:21.857Z,44.28
2019-05-10T14:56:21.969Z,44.38
2019-05-10T15:01:22.006Z,43.45
2019-05-10T15:06:22.670Z,42.26
2019-05-10T15:11:31.553Z,43.77
2019-05-10T15:16:31.005Z,41.4
2019-05-10T15:21:23.214Z,41.44
2019-05-10T15:26:29.352Z,42.47
2019-05-10T15:31:31.087Z,40.57
2019-05-10T15:36:32.032Z,41.76
2019-05-10T15:41:30.362Z,42.21
2019-05-10T15:46:42.217Z,43.74
2019-05-10T15:51:36.879Z,41.38
2019-05-10T15:56:30.630Z,43.26
2019-05-10T16:01:30.646Z,42.79
2019-05-10T16:06:37.526Z,43.02
2019-05-10T16:11:30.903Z,43.7
2019-05-10T16:16:39.734Z,41.72
2019-05-10T16:21:37.359Z,43.32
2019-05-10T16:26:37.779Z,43.13
2019-05-10T16:31:37.966Z,41.35
2019-05-10T16:36:39.009Z,42.96
2019-05-10T16:41:39.868Z,43.13
2019-05-10T16:46:39.857Z,42.89
2019-05-10T16:51:47.519Z,43.71
2019-05-10T16:56:39.999Z,42.36
2019-05-10T17:01:40.035Z,42.18
2019-05-10T17:06:41.992Z,41.76
2019-05-10T17:11:46.772Z,43.11
2019-05-10T17:16:58.247Z,44.63
2019-05-10T17:21:46.746Z,45.58
2019-05-10T17:26:46.857Z,44.99
2019-05-10T17:31:48.034Z,45.39
2019-05-10T17:36:57.759Z,45.76
2019-05-10T17:41:47.737Z,45.83
2019-05-10T17:46:55.255Z,46.88
2019-05-10T17:51:47.933Z,47.26
2019-05-10T17:56:48.008Z,49.39
2019-05-10T18:01:48.121Z,49.47
2019-05-10T18:06:48.116Z,49.27
2019-05-10T18:11:54.429Z,49.58
2019-05-10T18:16:54.473Z,49.53
2019-05-10T18:22:03.592Z,49.48
2019-05-10T18:26:54.674Z,49.71
2019-05-10T18:31:58.220Z,49.74
2019-05-10T18:36:54.802Z,50.26
2019-05-10T18:41:54.915Z,50.2
2019-05-10T18:46:54.952Z,50.46
2019-05-10T18:52:06.403Z,50.5
2019-05-10T18:56:55.067Z,50.88
2019-05-10T19:01:55.107Z,51.5
2019-05-10T19:07:10.518Z,51.86
2019-05-10T19:12:01.505Z,52.06
2019-05-10T19:17:09.287Z,51.95
2019-05-10T19:22:08.726Z,52.34
2019-05-10T19:27:09.181Z,51.89
2019-05-10T19:32:01.762Z,51.46
2019-05-10T19:37:02.247Z,51.74
2019-05-10T19:42:06.317Z,51.55
2019-05-10T19:47:03.824Z,51.6
2019-05-10T19:52:03.859Z,52.24
2019-05-10T19:57:18.521Z,52.86
2019-05-10T20:02:10.218Z,52.83
2019-05-10T20:07:10.503Z,52.57
2019-05-10T20:12:10.362Z,52.74
2019-05-10T20:17:10.581Z,52.82
2019-05-10T20:22:11.947Z,53.02
2019-05-10T20:27:11.987Z,52.73
2019-05-10T20:32:12.101Z,52.6
2019-05-10T20:37:12.136Z,52.73
2019-05-10T20:42:12.173Z,53.11
2019-05-10T20:47:12.290Z,52.78
2019-05-10T20:52:12.773Z,53.0
2019-05-10T20:57:18.710Z,53.43
2019-05-10T21:02:18.707Z,53.77
2019-05-10T21:07:18.825Z,53.53
2019-05-10T21:12:18.937Z,53.59
2019-05-10T21:17:18.972Z,53.38
2019-05-10T21:22:19.164Z,53.88
2019-05-10T21:27:19.099Z,54.17
2019-05-10T21:32:19.139Z,54.8
2019-05-10T21:37:19.255Z,54.57
2019-05-10T21:42:19.665Z,54.83
2019-05-10T21:47:19.864Z,54.8
2019-05-10T21:52:26.158Z,54.82
2019-05-10T21:57:26.307Z,55.33
2019-05-10T22:02:26.388Z,55.11
2019-05-10T22:07:26.434Z,55.71
2019-05-10T22:12:26.477Z,55.11
2019-05-10T22:17:26.678Z,55.13
2019-05-10T22:22:26.916Z,56.54
2019-05-10T22:27:26.752Z,58.86
2019-05-10T22:32:26.763Z,60.74
2019-05-10T22:37:27.046Z,62.39
2019-05-10T22:42:27.181Z,62.1
2019-05-10T22:47:33.493Z,62.77
2019-05-10T22:52:33.536Z,62.7
2019-05-10T22:57:34.335Z,63.3
2019-05-10T23:02:34.380Z,64.24
2019-05-10T23:07:34.424Z,63.85
2019-05-10T23:12:34.470Z,63.65
2019-05-10T23:17:34.486Z,65.71
2019-05-10T23:22:34.636Z,66.66
2019-05-10T23:27:34.688Z,66.35
2019-05-10T23:32:34.719Z,66.66
2019-05-10T23:37:34.743Z,67.05
2019-05-10T23:42:43.087Z,67.11
2019-05-10T23:47:43.848Z,67.49
2019-05-10T23:52:43.881Z,66.84
2019-05-10T23:57:44.103Z,67.45
